sensor_id;sensor_type;location;lat;lon;timestamp;P1;durP1;ratioP1;P2;durP2;ratioP2
9823;SDS011;4951;50.778;7.196;2022-12-18T00:01:19;22.60;;;13.60;;
9823;SDS011;4951;50.778;7.196;2022-12-18T00:03:47;24.83;;;14.73;;
9823;SDS011;4951;50.778;7.196;2022-12-18T00:06:16;26.87;;;13.87;;
9823;SDS011;4951;50.778;7.196;2022-12-18T00:08:43;24.10;;;14.80;;
9823;SDS011;4951;50.778;7.196;2022-12-18T00:11:12;25.33;;;15.07;;
9823;SDS011;4951;50.778;7.196;2022-12-18T00:13:41;21.43;;;13.67;;
9823;SDS011;4951;50.778;7.196;2022-12-18T00:16:09;25.17;;;14.90;;
9823;SDS011;4951;50.778;7.196;2022-12-18T00:18:39;28.33;;;14.67;;
9823;SDS011;4951;50.778;7.196;2022-12-18T00:21:07;24.00;;;14.57;;
9823;SDS011;4951;50.778;7.196;2022-12-18T00:23:38;24.10;;;13.87;;
9823;SDS011;4951;50.778;7.196;2022-12-18T00:26:09;25.87;;;14.67;;
9823;SDS011;4951;50.778;7.196;2022-12-18T00:28:40;24.53;;;14.63;;
9823;SDS011;4951;50.778;7.196;2022-12-18T00:31:08;25.37;;;15.00;;
9823;SDS011;4951;50.778;7.196;2022-12-18T00:33:36;23.50;;;13.93;;
9823;SDS011;4951;50.778;7.196;2022-12-18T00:36:04;24.33;;;15.10;;
9823;SDS011;4951;50.778;7.196;2022-12-18T00:38:33;25.87;;;15.17;;
9823;SDS011;4951;50.778;7.196;2022-12-18T00:41:06;26.47;;;14.80;;
9823;SDS011;4951;50.778;7.196;2022-12-18T00:43:34;29.73;;;15.83;;
9823;SDS011;4951;50.778;7.196;2022-12-18T00:46:01;24.03;;;14.33;;
9823;SDS011;4951;50.778;7.196;2022-12-18T00:48:28;23.83;;;14.60;;
9823;SDS011;4951;50.778;7.196;2022-12-18T00:50:55;23.93;;;15.33;;
9823;SDS011;4951;50.778;7.196;2022-12-18T00:53:22;25.00;;;14.30;;
9823;SDS011;4951;50.778;7.196;2022-12-18T00:55:49;26.20;;;15.30;;
9823;SDS011;4951;50.778;7.196;2022-12-18T00:58:18;26.37;;;15.00;;
9823;SDS011;4951;50.778;7.196;2022-12-18T01:00:46;25.17;;;15.00;;
9823;SDS011;4951;50.778;7.196;2022-12-18T01:03:13;23.37;;;14.53;;
9823;SDS011;4951;50.778;7.196;2022-12-18T01:05:42;25.53;;;16.07;;
9823;SDS011;4951;50.778;7.196;2022-12-18T01:08:10;26.47;;;15.97;;
9823;SDS011;4951;50.778;7.196;2022-12-18T01:10:39;23.63;;;14.43;;
9823;SDS011;4951;50.778;7.196;2022-12-18T01:13:07;25.87;;;15.53;;
9823;SDS011;4951;50.778;7.196;2022-12-18T01:15:35;25.00;;;14.53;;
9823;SDS011;4951;50.778;7.196;2022-12-18T01:18:03;26.87;;;15.63;;
9823;SDS011;4951;50.778;7.196;2022-12-18T01:20:30;23.27;;;13.73;;
9823;SDS011;4951;50.778;7.196;2022-12-18T01:22:57;27.17;;;14.80;;
9823;SDS011;4951;50.778;7.196;2022-12-18T01:25:26;26.40;;;14.90;;
9823;SDS011;4951;50.778;7.196;2022-12-18T01:27:53;26.87;;;15.07;;
9823;SDS011;4951;50.778;7.196;2022-12-18T01:30:21;24.83;;;14.60;;
9823;SDS011;4951;50.778;7.196;2022-12-18T01:32:49;26.87;;;15.80;;
9823;SDS011;4951;50.778;7.196;2022-12-18T01:35:16;25.13;;;14.83;;
9823;SDS011;4951;50.778;7.196;2022-12-18T01:37:43;29.17;;;16.67;;
9823;SDS011;4951;50.778;7.196;2022-12-18T01:40:10;25.80;;;16.10;;
9823;SDS011;4951;50.778;7.196;2022-12-18T01:42:38;23.37;;;13.70;;
9823;SDS011;4951;50.778;7.196;2022-12-18T01:45:06;28.80;;;15.77;;
9823;SDS011;4951;50.778;7.196;2022-12-18T01:47:52;25.93;;;15.23;;
9823;SDS011;4951;50.778;7.196;2022-12-18T01:50:22;23.60;;;13.37;;
9823;SDS011;4951;50.778;7.196;2022-12-18T01:52:54;24.10;;;14.10;;
9823;SDS011;4951;50.778;7.196;2022-12-18T01:55:26;22.20;;;13.73;;
9823;SDS011;4951;50.778;7.196;2022-12-18T01:57:56;20.07;;;12.47;;
9823;SDS011;4951;50.778;7.196;2022-12-18T02:00:26;21.73;;;14.10;;
9823;SDS011;4951;50.778;7.196;2022-12-18T02:02:55;23.07;;;12.80;;
9823;SDS011;4951;50.778;7.196;2022-12-18T02:05:25;24.73;;;14.03;;
9823;SDS011;4951;50.778;7.196;2022-12-18T02:08:01;24.10;;;14.47;;
9823;SDS011;4951;50.778;7.196;2022-12-18T02:10:36;26.10;;;15.63;;
9823;SDS011;4951;50.778;7.196;2022-12-18T02:13:10;29.90;;;15.87;;
9823;SDS011;4951;50.778;7.196;2022-12-18T02:15:43;23.37;;;14.37;;
9823;SDS011;4951;50.778;7.196;2022-12-18T02:18:19;23.40;;;14.70;;
9823;SDS011;4951;50.778;7.196;2022-12-18T02:20:52;22.57;;;14.03;;
9823;SDS011;4951;50.778;7.196;2022-12-18T02:23:29;27.77;;;15.40;;
9823;SDS011;4951;50.778;7.196;2022-12-18T02:26:19;28.17;;;15.77;;
9823;SDS011;4951;50.778;7.196;2022-12-18T02:28:51;22.40;;;13.37;;
9823;SDS011;4951;50.778;7.196;2022-12-18T02:31:25;27.17;;;14.57;;
9823;SDS011;4951;50.778;7.196;2022-12-18T02:34:00;25.50;;;14.23;;
9823;SDS011;4951;50.778;7.196;2022-12-18T02:36:36;23.70;;;13.47;;
9823;SDS011;4951;50.778;7.196;2022-12-18T02:39:06;23.70;;;14.30;;
9823;SDS011;4951;50.778;7.196;2022-12-18T02:41:41;25.70;;;16.13;;
9823;SDS011;4951;50.778;7.196;2022-12-18T02:44:10;26.00;;;15.60;;
9823;SDS011;4951;50.778;7.196;2022-12-18T02:46:39;25.17;;;14.80;;
9823;SDS011;4951;50.778;7.196;2022-12-18T02:49:14;26.07;;;15.13;;
9823;SDS011;4951;50.778;7.196;2022-12-18T02:51:52;23.37;;;14.63;;
9823;SDS011;4951;50.778;7.196;2022-12-18T02:54:37;26.67;;;14.53;;
9823;SDS011;4951;50.778;7.196;2022-12-18T02:57:18;22.70;;;12.83;;
9823;SDS011;4951;50.778;7.196;2022-12-18T02:59:58;22.53;;;13.63;;
9823;SDS011;4951;50.778;7.196;2022-12-18T03:02:31;24.77;;;14.30;;
9823;SDS011;4951;50.778;7.196;2022-12-18T03:05:05;19.60;;;13.00;;
9823;SDS011;4951;50.778;7.196;2022-12-18T03:07:39;21.53;;;14.03;;
9823;SDS011;4951;50.778;7.196;2022-12-18T03:10:13;25.17;;;14.67;;
9823;SDS011;4951;50.778;7.196;2022-12-18T03:12:46;26.63;;;15.57;;
9823;SDS011;4951;50.778;7.196;2022-12-18T03:15:19;25.43;;;15.17;;
9823;SDS011;4951;50.778;7.196;2022-12-18T03:17:57;21.80;;;14.03;;
9823;SDS011;4951;50.778;7.196;2022-12-18T03:20:30;26.47;;;14.57;;
9823;SDS011;4951;50.778;7.196;2022-12-18T03:23:02;23.43;;;13.30;;
9823;SDS011;4951;50.778;7.196;2022-12-18T03:25:34;24.43;;;14.63;;
9823;SDS011;4951;50.778;7.196;2022-12-18T03:28:08;23.17;;;14.87;;
9823;SDS011;4951;50.778;7.196;2022-12-18T03:30:43;24.17;;;14.30;;
9823;SDS011;4951;50.778;7.196;2022-12-18T03:33:13;23.37;;;13.47;;
9823;SDS011;4951;50.778;7.196;2022-12-18T03:35:47;20.70;;;13.07;;
9823;SDS011;4951;50.778;7.196;2022-12-18T03:38:16;22.43;;;14.03;;
9823;SDS011;4951;50.778;7.196;2022-12-18T03:40:50;22.33;;;13.07;;
9823;SDS011;4951;50.778;7.196;2022-12-18T03:43:29;24.23;;;15.43;;
9823;SDS011;4951;50.778;7.196;2022-12-18T03:46:03;26.33;;;15.80;;
9823;SDS011;4951;50.778;7.196;2022-12-18T03:48:36;21.47;;;13.40;;
9823;SDS011;4951;50.778;7.196;2022-12-18T03:51:11;23.60;;;15.07;;
9823;SDS011;4951;50.778;7.196;2022-12-18T03:53:45;26.20;;;15.80;;
9823;SDS011;4951;50.778;7.196;2022-12-18T03:56:21;23.67;;;15.00;;
9823;SDS011;4951;50.778;7.196;2022-12-18T03:58:52;22.33;;;14.33;;
9823;SDS011;4951;50.778;7.196;2022-12-18T04:01:25;25.30;;;15.43;;
9823;SDS011;4951;50.778;7.196;2022-12-18T04:03:59;25.73;;;16.07;;
9823;SDS011;4951;50.778;7.196;2022-12-18T04:06:30;23.30;;;14.63;;
9823;SDS011;4951;50.778;7.196;2022-12-18T04:09:01;23.87;;;15.23;;
9823;SDS011;4951;50.778;7.196;2022-12-18T04:11:31;23.47;;;14.83;;
9823;SDS011;4951;50.778;7.196;2022-12-18T04:14:02;23.13;;;14.93;;
9823;SDS011;4951;50.778;7.196;2022-12-18T04:16:30;26.63;;;14.17;;
9823;SDS011;4951;50.778;7.196;2022-12-18T04:19:00;24.80;;;15.17;;
9823;SDS011;4951;50.778;7.196;2022-12-18T04:21:32;25.90;;;15.17;;
9823;SDS011;4951;50.778;7.196;2022-12-18T04:23:59;24.47;;;15.20;;
9823;SDS011;4951;50.778;7.196;2022-12-18T04:26:27;24.07;;;14.70;;
9823;SDS011;4951;50.778;7.196;2022-12-18T04:29:18;22.27;;;14.00;;
9823;SDS011;4951;50.778;7.196;2022-12-18T04:31:46;26.23;;;15.87;;
9823;SDS011;4951;50.778;7.196;2022-12-18T04:34:14;22.20;;;14.07;;
9823;SDS011;4951;50.778;7.196;2022-12-18T04:36:48;25.00;;;14.50;;
9823;SDS011;4951;50.778;7.196;2022-12-18T04:39:19;24.10;;;14.57;;
9823;SDS011;4951;50.778;7.196;2022-12-18T04:41:50;20.07;;;13.87;;
9823;SDS011;4951;50.778;7.196;2022-12-18T04:44:19;21.63;;;13.10;;
9823;SDS011;4951;50.778;7.196;2022-12-18T04:46:47;24.47;;;14.67;;
9823;SDS011;4951;50.778;7.196;2022-12-18T04:49:14;20.37;;;13.13;;
9823;SDS011;4951;50.778;7.196;2022-12-18T04:51:42;22.03;;;14.37;;
9823;SDS011;4951;50.778;7.196;2022-12-18T04:54:09;24.03;;;15.13;;
9823;SDS011;4951;50.778;7.196;2022-12-18T04:56:37;23.30;;;14.23;;
9823;SDS011;4951;50.778;7.196;2022-12-18T04:59:05;22.27;;;14.17;;
9823;SDS011;4951;50.778;7.196;2022-12-18T05:01:36;21.87;;;14.07;;
9823;SDS011;4951;50.778;7.196;2022-12-18T05:04:05;20.37;;;13.57;;
9823;SDS011;4951;50.778;7.196;2022-12-18T05:06:32;28.00;;;15.03;;
9823;SDS011;4951;50.778;7.196;2022-12-18T05:09:00;21.03;;;12.93;;
9823;SDS011;4951;50.778;7.196;2022-12-18T05:11:28;19.77;;;12.77;;
9823;SDS011;4951;50.778;7.196;2022-12-18T05:13:55;20.67;;;13.27;;
9823;SDS011;4951;50.778;7.196;2022-12-18T05:16:24;21.40;;;13.53;;
9823;SDS011;4951;50.778;7.196;2022-12-18T05:18:53;23.33;;;13.63;;
9823;SDS011;4951;50.778;7.196;2022-12-18T05:21:21;22.30;;;13.20;;
9823;SDS011;4951;50.778;7.196;2022-12-18T05:23:48;20.13;;;12.67;;
9823;SDS011;4951;50.778;7.196;2022-12-18T05:26:17;21.77;;;13.80;;
9823;SDS011;4951;50.778;7.196;2022-12-18T05:28:45;20.93;;;13.33;;
9823;SDS011;4951;50.778;7.196;2022-12-18T05:31:13;22.07;;;13.50;;
9823;SDS011;4951;50.778;7.196;2022-12-18T05:33:40;20.37;;;12.90;;
9823;SDS011;4951;50.778;7.196;2022-12-18T05:36:09;21.53;;;13.47;;
9823;SDS011;4951;50.778;7.196;2022-12-18T05:38:37;26.53;;;14.73;;
9823;SDS011;4951;50.778;7.196;2022-12-18T05:41:05;24.70;;;15.50;;
9823;SDS011;4951;50.778;7.196;2022-12-18T05:43:33;21.70;;;13.70;;
9823;SDS011;4951;50.778;7.196;2022-12-18T05:46:02;25.13;;;15.87;;
9823;SDS011;4951;50.778;7.196;2022-12-18T05:48:30;23.87;;;14.93;;
9823;SDS011;4951;50.778;7.196;2022-12-18T05:51:02;22.73;;;14.13;;
9823;SDS011;4951;50.778;7.196;2022-12-18T05:53:33;22.00;;;14.20;;
9823;SDS011;4951;50.778;7.196;2022-12-18T05:56:02;21.70;;;14.93;;
9823;SDS011;4951;50.778;7.196;2022-12-18T05:58:31;22.93;;;13.17;;
9823;SDS011;4951;50.778;7.196;2022-12-18T06:01:05;21.87;;;13.93;;
9823;SDS011;4951;50.778;7.196;2022-12-18T06:03:33;22.67;;;14.87;;
9823;SDS011;4951;50.778;7.196;2022-12-18T06:06:00;21.10;;;13.80;;
9823;SDS011;4951;50.778;7.196;2022-12-18T06:08:28;25.23;;;15.97;;
9823;SDS011;4951;50.778;7.196;2022-12-18T06:10:57;26.53;;;16.47;;
9823;SDS011;4951;50.778;7.196;2022-12-18T06:13:24;23.53;;;13.43;;
9823;SDS011;4951;50.778;7.196;2022-12-18T06:15:53;21.03;;;14.53;;
9823;SDS011;4951;50.778;7.196;2022-12-18T06:18:20;25.23;;;14.70;;
9823;SDS011;4951;50.778;7.196;2022-12-18T06:20:53;26.63;;;16.53;;
9823;SDS011;4951;50.778;7.196;2022-12-18T06:23:22;24.60;;;15.97;;
9823;SDS011;4951;50.778;7.196;2022-12-18T06:25:49;23.47;;;13.77;;
9823;SDS011;4951;50.778;7.196;2022-12-18T06:28:17;21.60;;;14.60;;
9823;SDS011;4951;50.778;7.196;2022-12-18T06:30:45;24.23;;;15.03;;
9823;SDS011;4951;50.778;7.196;2022-12-18T06:33:16;25.27;;;15.40;;
9823;SDS011;4951;50.778;7.196;2022-12-18T06:35:47;21.00;;;12.70;;
9823;SDS011;4951;50.778;7.196;2022-12-18T06:38:15;26.33;;;13.97;;
9823;SDS011;4951;50.778;7.196;2022-12-18T06:40:42;27.37;;;16.33;;
9823;SDS011;4951;50.778;7.196;2022-12-18T06:43:09;25.83;;;16.17;;
9823;SDS011;4951;50.778;7.196;2022-12-18T06:45:38;23.30;;;14.47;;
9823;SDS011;4951;50.778;7.196;2022-12-18T06:48:06;26.23;;;14.93;;
9823;SDS011;4951;50.778;7.196;2022-12-18T06:50:33;26.73;;;16.37;;
9823;SDS011;4951;50.778;7.196;2022-12-18T06:53:01;25.20;;;15.47;;
9823;SDS011;4951;50.778;7.196;2022-12-18T06:55:28;24.80;;;14.87;;
9823;SDS011;4951;50.778;7.196;2022-12-18T06:57:55;25.50;;;15.77;;
9823;SDS011;4951;50.778;7.196;2022-12-18T07:00:23;28.17;;;18.10;;
9823;SDS011;4951;50.778;7.196;2022-12-18T07:02:52;25.37;;;16.40;;
9823;SDS011;4951;50.778;7.196;2022-12-18T07:05:21;25.10;;;15.60;;
9823;SDS011;4951;50.778;7.196;2022-12-18T07:07:48;28.03;;;17.53;;
9823;SDS011;4951;50.778;7.196;2022-12-18T07:10:15;28.53;;;15.77;;
9823;SDS011;4951;50.778;7.196;2022-12-18T07:12:42;28.37;;;17.70;;
9823;SDS011;4951;50.778;7.196;2022-12-18T07:15:10;24.63;;;14.03;;
9823;SDS011;4951;50.778;7.196;2022-12-18T07:17:37;26.13;;;15.80;;
9823;SDS011;4951;50.778;7.196;2022-12-18T07:20:14;27.97;;;16.70;;
9823;SDS011;4951;50.778;7.196;2022-12-18T07:22:42;28.40;;;17.27;;
9823;SDS011;4951;50.778;7.196;2022-12-18T07:25:09;31.40;;;17.73;;
9823;SDS011;4951;50.778;7.196;2022-12-18T07:27:38;22.57;;;14.07;;
9823;SDS011;4951;50.778;7.196;2022-12-18T07:30:31;20.90;;;13.07;;
9823;SDS011;4951;50.778;7.196;2022-12-18T07:32:58;25.77;;;15.00;;
9823;SDS011;4951;50.778;7.196;2022-12-18T07:35:29;28.10;;;17.20;;
9823;SDS011;4951;50.778;7.196;2022-12-18T07:37:56;22.90;;;14.50;;
9823;SDS011;4951;50.778;7.196;2022-12-18T07:40:27;26.60;;;17.47;;
9823;SDS011;4951;50.778;7.196;2022-12-18T07:42:54;23.47;;;15.57;;
9823;SDS011;4951;50.778;7.196;2022-12-18T07:45:21;27.23;;;17.60;;
9823;SDS011;4951;50.778;7.196;2022-12-18T07:47:48;29.83;;;18.67;;
9823;SDS011;4951;50.778;7.196;2022-12-18T07:50:15;27.27;;;17.90;;
9823;SDS011;4951;50.778;7.196;2022-12-18T07:52:44;27.50;;;16.93;;
9823;SDS011;4951;50.778;7.196;2022-12-18T07:55:11;28.40;;;16.90;;
9823;SDS011;4951;50.778;7.196;2022-12-18T07:57:39;29.53;;;18.57;;
9823;SDS011;4951;50.778;7.196;2022-12-18T08:00:06;26.67;;;17.80;;
9823;SDS011;4951;50.778;7.196;2022-12-18T08:02:37;27.43;;;16.30;;
9823;SDS011;4951;50.778;7.196;2022-12-18T08:05:05;28.47;;;17.53;;
9823;SDS011;4951;50.778;7.196;2022-12-18T08:07:32;24.57;;;16.00;;
9823;SDS011;4951;50.778;7.196;2022-12-18T08:10:00;29.00;;;18.00;;
9823;SDS011;4951;50.778;7.196;2022-12-18T08:12:28;26.00;;;16.33;;
9823;SDS011;4951;50.778;7.196;2022-12-18T08:14:55;26.90;;;15.37;;
9823;SDS011;4951;50.778;7.196;2022-12-18T08:17:22;28.40;;;16.93;;
9823;SDS011;4951;50.778;7.196;2022-12-18T08:19:49;24.97;;;16.23;;
9823;SDS011;4951;50.778;7.196;2022-12-18T08:22:19;29.63;;;18.67;;
9823;SDS011;4951;50.778;7.196;2022-12-18T08:24:46;28.60;;;18.97;;
9823;SDS011;4951;50.778;7.196;2022-12-18T08:27:15;27.50;;;16.47;;
9823;SDS011;4951;50.778;7.196;2022-12-18T08:29:45;29.87;;;17.90;;
9823;SDS011;4951;50.778;7.196;2022-12-18T08:32:12;31.53;;;18.30;;
9823;SDS011;4951;50.778;7.196;2022-12-18T08:34:40;29.37;;;18.60;;
9823;SDS011;4951;50.778;7.196;2022-12-18T08:37:07;28.23;;;18.07;;
9823;SDS011;4951;50.778;7.196;2022-12-18T08:39:34;30.10;;;19.80;;
9823;SDS011;4951;50.778;7.196;2022-12-18T08:42:01;32.73;;;20.10;;
9823;SDS011;4951;50.778;7.196;2022-12-18T08:44:47;27.30;;;17.73;;
9823;SDS011;4951;50.778;7.196;2022-12-18T08:47:14;29.80;;;18.73;;
9823;SDS011;4951;50.778;7.196;2022-12-18T08:49:41;27.73;;;17.43;;
9823;SDS011;4951;50.778;7.196;2022-12-18T08:52:09;25.93;;;17.43;;
9823;SDS011;4951;50.778;7.196;2022-12-18T08:54:37;28.27;;;18.30;;
9823;SDS011;4951;50.778;7.196;2022-12-18T08:57:04;28.13;;;19.47;;
9823;SDS011;4951;50.778;7.196;2022-12-18T08:59:32;28.63;;;18.50;;
9823;SDS011;4951;50.778;7.196;2022-12-18T09:02:00;27.77;;;17.10;;
9823;SDS011;4951;50.778;7.196;2022-12-18T09:04:29;25.77;;;17.20;;
9823;SDS011;4951;50.778;7.196;2022-12-18T09:06:56;29.87;;;18.33;;
9823;SDS011;4951;50.778;7.196;2022-12-18T09:09:23;27.37;;;17.63;;
9823;SDS011;4951;50.778;7.196;2022-12-18T09:11:50;28.53;;;18.07;;
9823;SDS011;4951;50.778;7.196;2022-12-18T09:14:18;25.93;;;16.80;;
9823;SDS011;4951;50.778;7.196;2022-12-18T09:16:45;24.77;;;17.43;;
9823;SDS011;4951;50.778;7.196;2022-12-18T09:19:18;24.33;;;16.13;;
9823;SDS011;4951;50.778;7.196;2022-12-18T09:21:47;26.23;;;16.23;;
9823;SDS011;4951;50.778;7.196;2022-12-18T09:24:15;25.27;;;15.67;;
9823;SDS011;4951;50.778;7.196;2022-12-18T09:26:45;23.17;;;14.73;;
9823;SDS011;4951;50.778;7.196;2022-12-18T09:29:15;25.07;;;15.37;;
9823;SDS011;4951;50.778;7.196;2022-12-18T09:31:42;21.40;;;14.80;;
9823;SDS011;4951;50.778;7.196;2022-12-18T09:34:09;23.63;;;16.67;;
9823;SDS011;4951;50.778;7.196;2022-12-18T09:36:38;26.60;;;16.27;;
9823;SDS011;4951;50.778;7.196;2022-12-18T09:39:05;23.70;;;16.20;;
9823;SDS011;4951;50.778;7.196;2022-12-18T09:41:35;21.20;;;14.43;;
9823;SDS011;4951;50.778;7.196;2022-12-18T09:44:22;22.57;;;14.60;;
9823;SDS011;4951;50.778;7.196;2022-12-18T09:46:53;24.13;;;14.90;;
9823;SDS011;4951;50.778;7.196;2022-12-18T09:49:37;21.43;;;14.17;;
9823;SDS011;4951;50.778;7.196;2022-12-18T09:52:11;22.40;;;13.63;;
9823;SDS011;4951;50.778;7.196;2022-12-18T09:54:46;22.13;;;14.43;;
9823;SDS011;4951;50.778;7.196;2022-12-18T09:57:20;21.67;;;15.00;;
9823;SDS011;4951;50.778;7.196;2022-12-18T09:59:50;24.33;;;15.97;;
9823;SDS011;4951;50.778;7.196;2022-12-18T10:02:21;23.13;;;15.10;;
9823;SDS011;4951;50.778;7.196;2022-12-18T10:07:53;22.37;;;14.93;;
9823;SDS011;4951;50.778;7.196;2022-12-18T10:10:31;21.37;;;14.43;;
9823;SDS011;4951;50.778;7.196;2022-12-18T10:13:07;23.60;;;15.33;;
9823;SDS011;4951;50.778;7.196;2022-12-18T10:15:45;20.40;;;13.40;;
9823;SDS011;4951;50.778;7.196;2022-12-18T10:18:24;21.33;;;14.07;;
9823;SDS011;4951;50.778;7.196;2022-12-18T10:21:09;21.73;;;14.47;;
9823;SDS011;4951;50.778;7.196;2022-12-18T10:23:46;22.50;;;15.53;;
9823;SDS011;4951;50.778;7.196;2022-12-18T10:26:20;22.30;;;14.97;;
9823;SDS011;4951;50.778;7.196;2022-12-18T10:28:47;21.90;;;14.10;;
9823;SDS011;4951;50.778;7.196;2022-12-18T10:31:18;19.97;;;14.53;;
9823;SDS011;4951;50.778;7.196;2022-12-18T10:33:47;21.23;;;14.33;;
9823;SDS011;4951;50.778;7.196;2022-12-18T10:36:19;20.50;;;14.77;;
9823;SDS011;4951;50.778;7.196;2022-12-18T10:38:51;20.57;;;14.27;;
9823;SDS011;4951;50.778;7.196;2022-12-18T10:41:23;20.73;;;14.37;;
9823;SDS011;4951;50.778;7.196;2022-12-18T10:46:37;21.20;;;14.53;;
9823;SDS011;4951;50.778;7.196;2022-12-18T10:49:17;20.87;;;13.87;;
9823;SDS011;4951;50.778;7.196;2022-12-18T10:51:47;20.07;;;13.87;;
9823;SDS011;4951;50.778;7.196;2022-12-18T10:54:18;17.97;;;13.20;;
9823;SDS011;4951;50.778;7.196;2022-12-18T10:56:48;21.70;;;14.33;;
9823;SDS011;4951;50.778;7.196;2022-12-18T10:59:17;20.00;;;14.03;;
9823;SDS011;4951;50.778;7.196;2022-12-18T11:01:46;21.27;;;15.50;;
9823;SDS011;4951;50.778;7.196;2022-12-18T11:04:16;20.43;;;14.17;;
9823;SDS011;4951;50.778;7.196;2022-12-18T11:09:37;19.57;;;13.93;;
9823;SDS011;4951;50.778;7.196;2022-12-18T11:12:14;21.40;;;13.03;;
9823;SDS011;4951;50.778;7.196;2022-12-18T11:14:46;19.80;;;13.80;;
9823;SDS011;4951;50.778;7.196;2022-12-18T11:17:18;19.07;;;13.80;;
9823;SDS011;4951;50.778;7.196;2022-12-18T11:19:54;18.53;;;12.27;;
9823;SDS011;4951;50.778;7.196;2022-12-18T11:22:23;20.57;;;14.57;;
9823;SDS011;4951;50.778;7.196;2022-12-18T11:24:55;21.53;;;14.20;;
9823;SDS011;4951;50.778;7.196;2022-12-18T11:27:25;22.37;;;15.23;;
9823;SDS011;4951;50.778;7.196;2022-12-18T11:30:06;19.70;;;14.50;;
9823;SDS011;4951;50.778;7.196;2022-12-18T11:32:38;19.03;;;13.33;;
9823;SDS011;4951;50.778;7.196;2022-12-18T11:35:15;19.20;;;13.97;;
9823;SDS011;4951;50.778;7.196;2022-12-18T11:37:47;21.67;;;14.67;;
9823;SDS011;4951;50.778;7.196;2022-12-18T11:40:22;20.33;;;14.30;;
9823;SDS011;4951;50.778;7.196;2022-12-18T11:43:02;21.10;;;15.00;;
9823;SDS011;4951;50.778;7.196;2022-12-18T11:45:36;22.47;;;14.47;;
9823;SDS011;4951;50.778;7.196;2022-12-18T11:48:12;19.53;;;14.27;;
9823;SDS011;4951;50.778;7.196;2022-12-18T11:50:48;20.70;;;14.67;;
9823;SDS011;4951;50.778;7.196;2022-12-18T11:53:21;21.83;;;14.60;;
9823;SDS011;4951;50.778;7.196;2022-12-18T11:56:00;22.50;;;15.73;;
9823;SDS011;4951;50.778;7.196;2022-12-18T11:58:38;21.30;;;14.33;;
9823;SDS011;4951;50.778;7.196;2022-12-18T12:01:39;21.77;;;14.23;;
9823;SDS011;4951;50.778;7.196;2022-12-18T12:04:19;23.17;;;15.73;;
9823;SDS011;4951;50.778;7.196;2022-12-18T12:07:05;24.30;;;15.73;;
9823;SDS011;4951;50.778;7.196;2022-12-18T12:09:43;23.13;;;15.87;;
9823;SDS011;4951;50.778;7.196;2022-12-18T12:12:24;21.93;;;14.70;;
9823;SDS011;4951;50.778;7.196;2022-12-18T12:15:13;21.53;;;15.43;;
9823;SDS011;4951;50.778;7.196;2022-12-18T12:17:53;21.77;;;15.23;;
9823;SDS011;4951;50.778;7.196;2022-12-18T12:20:34;21.60;;;15.47;;
9823;SDS011;4951;50.778;7.196;2022-12-18T12:23:13;22.43;;;15.23;;
9823;SDS011;4951;50.778;7.196;2022-12-18T12:25:49;23.10;;;15.73;;
9823;SDS011;4951;50.778;7.196;2022-12-18T12:28:35;22.20;;;15.27;;
9823;SDS011;4951;50.778;7.196;2022-12-18T12:31:16;23.40;;;15.47;;
9823;SDS011;4951;50.778;7.196;2022-12-18T12:33:53;21.60;;;16.20;;
9823;SDS011;4951;50.778;7.196;2022-12-18T12:36:29;23.93;;;16.73;;
9823;SDS011;4951;50.778;7.196;2022-12-18T12:39:07;23.50;;;15.40;;
9823;SDS011;4951;50.778;7.196;2022-12-18T12:41:39;22.97;;;15.60;;
9823;SDS011;4951;50.778;7.196;2022-12-18T12:44:30;22.67;;;15.83;;
9823;SDS011;4951;50.778;7.196;2022-12-18T12:47:11;25.63;;;16.57;;
9823;SDS011;4951;50.778;7.196;2022-12-18T12:49:45;21.87;;;14.40;;
9823;SDS011;4951;50.778;7.196;2022-12-18T12:52:15;23.83;;;16.60;;
9823;SDS011;4951;50.778;7.196;2022-12-18T12:54:48;22.23;;;16.60;;
9823;SDS011;4951;50.778;7.196;2022-12-18T12:57:19;24.97;;;15.83;;
9823;SDS011;4951;50.778;7.196;2022-12-18T12:59:58;27.67;;;18.13;;
9823;SDS011;4951;50.778;7.196;2022-12-18T13:02:31;21.53;;;16.00;;
9823;SDS011;4951;50.778;7.196;2022-12-18T13:05:09;24.33;;;17.43;;
9823;SDS011;4951;50.778;7.196;2022-12-18T13:07:46;26.77;;;17.70;;
9823;SDS011;4951;50.778;7.196;2022-12-18T13:10:26;23.73;;;17.20;;
9823;SDS011;4951;50.778;7.196;2022-12-18T13:12:59;24.00;;;17.33;;
9823;SDS011;4951;50.778;7.196;2022-12-18T13:15:31;25.53;;;17.27;;
9823;SDS011;4951;50.778;7.196;2022-12-18T13:18:09;27.17;;;17.87;;
9823;SDS011;4951;50.778;7.196;2022-12-18T13:20:41;24.00;;;17.70;;
9823;SDS011;4951;50.778;7.196;2022-12-18T13:23:26;25.80;;;17.60;;
9823;SDS011;4951;50.778;7.196;2022-12-18T13:28:59;25.40;;;17.87;;
9823;SDS011;4951;50.778;7.196;2022-12-18T13:34:38;26.50;;;17.90;;
9823;SDS011;4951;50.778;7.196;2022-12-18T13:43:22;24.23;;;17.33;;
9823;SDS011;4951;50.778;7.196;2022-12-18T13:46:00;24.60;;;16.87;;
9823;SDS011;4951;50.778;7.196;2022-12-18T13:48:30;30.00;;;19.10;;
9823;SDS011;4951;50.778;7.196;2022-12-18T13:51:03;25.03;;;17.63;;
9823;SDS011;4951;50.778;7.196;2022-12-18T13:53:33;24.73;;;18.40;;
9823;SDS011;4951;50.778;7.196;2022-12-18T13:56:03;25.53;;;16.87;;
9823;SDS011;4951;50.778;7.196;2022-12-18T13:58:33;24.80;;;18.23;;
9823;SDS011;4951;50.778;7.196;2022-12-18T14:01:00;26.97;;;18.13;;
9823;SDS011;4951;50.778;7.196;2022-12-18T14:03:30;25.40;;;17.83;;
9823;SDS011;4951;50.778;7.196;2022-12-18T14:06:02;27.20;;;18.13;;
9823;SDS011;4951;50.778;7.196;2022-12-18T14:08:33;27.23;;;18.20;;
9823;SDS011;4951;50.778;7.196;2022-12-18T14:11:03;25.73;;;18.30;;
9823;SDS011;4951;50.778;7.196;2022-12-18T14:13:32;24.43;;;18.27;;
9823;SDS011;4951;50.778;7.196;2022-12-18T14:16:03;26.10;;;17.83;;
9823;SDS011;4951;50.778;7.196;2022-12-18T14:18:38;27.13;;;18.73;;
9823;SDS011;4951;50.778;7.196;2022-12-18T14:21:18;27.77;;;17.63;;
9823;SDS011;4951;50.778;7.196;2022-12-18T14:23:48;26.27;;;17.70;;
9823;SDS011;4951;50.778;7.196;2022-12-18T14:26:23;25.00;;;17.70;;
9823;SDS011;4951;50.778;7.196;2022-12-18T14:28:54;25.80;;;17.93;;
9823;SDS011;4951;50.778;7.196;2022-12-18T14:31:22;26.30;;;17.17;;
9823;SDS011;4951;50.778;7.196;2022-12-18T14:33:51;25.90;;;17.67;;
9823;SDS011;4951;50.778;7.196;2022-12-18T14:36:21;24.47;;;16.73;;
9823;SDS011;4951;50.778;7.196;2022-12-18T14:38:50;27.73;;;18.50;;
9823;SDS011;4951;50.778;7.196;2022-12-18T14:41:19;24.77;;;17.77;;
9823;SDS011;4951;50.778;7.196;2022-12-18T14:43:48;24.23;;;17.60;;
9823;SDS011;4951;50.778;7.196;2022-12-18T14:46:27;25.57;;;18.27;;
9823;SDS011;4951;50.778;7.196;2022-12-18T14:48:57;28.23;;;18.17;;
9823;SDS011;4951;50.778;7.196;2022-12-18T14:51:28;28.97;;;19.27;;
9823;SDS011;4951;50.778;7.196;2022-12-18T14:53:56;25.77;;;17.40;;
9823;SDS011;4951;50.778;7.196;2022-12-18T14:56:27;29.37;;;18.80;;
9823;SDS011;4951;50.778;7.196;2022-12-18T14:58:56;29.57;;;19.33;;
9823;SDS011;4951;50.778;7.196;2022-12-18T15:01:25;29.80;;;20.13;;
9823;SDS011;4951;50.778;7.196;2022-12-18T15:03:55;28.57;;;19.23;;
9823;SDS011;4951;50.778;7.196;2022-12-18T15:06:29;26.70;;;19.03;;
9823;SDS011;4951;50.778;7.196;2022-12-18T15:08:58;29.47;;;20.43;;
9823;SDS011;4951;50.778;7.196;2022-12-18T15:11:35;29.17;;;19.97;;
9823;SDS011;4951;50.778;7.196;2022-12-18T15:14:24;26.83;;;18.70;;
9823;SDS011;4951;50.778;7.196;2022-12-18T15:17:00;29.60;;;20.30;;
9823;SDS011;4951;50.778;7.196;2022-12-18T15:19:32;29.83;;;19.43;;
9823;SDS011;4951;50.778;7.196;2022-12-18T15:22:13;27.10;;;19.03;;
9823;SDS011;4951;50.778;7.196;2022-12-18T15:24:48;29.07;;;19.87;;
9823;SDS011;4951;50.778;7.196;2022-12-18T15:27:23;30.20;;;19.83;;
9823;SDS011;4951;50.778;7.196;2022-12-18T15:32:46;31.80;;;19.77;;
9823;SDS011;4951;50.778;7.196;2022-12-18T15:35:15;29.60;;;20.53;;
9823;SDS011;4951;50.778;7.196;2022-12-18T15:37:46;29.57;;;20.03;;